Terminal Aerodrome Forecast
Issued by NWS Blacksburg, VA

Home | Current Version | Previous Version | Text Only | Print | Product List | Glossary On
Versions: 1 2 3 4 5 6 7 8 9 10 11 12 13 14 15 16 17 18 19 20 21 22 23 24 25 26 27 28 29 30 31 32 33 34 35 36 37 38 39 40 41 42
000
FTUS41 KRNK 270048 AAA
TAFROA
TAF AMD
KROA 270048Z 2701/2724 32010G20KT P6SM -SHRA SCT025 OVC050
      TEMPO 2701/2703 4SM SHRA OVC025
     FM270300 28009KT P6SM SCT025 OVC040
     FM270500 30012G22KT 4SM -SHRA OVC035
     FM270700 32010KT 5SM -RA OVC020
     FM271400 32008KT 6SM -RA OVC015
     FM271800 33007KT P6SM SCT025 BKN060=

USA.gov is the U.S. government's official web portal to all federal, state and local government web resources and services.